createdAt,value
2023-04-18T00:01:44.418Z,6.87
2023-04-18T00:04:29.440Z,6.66
2023-04-18T00:07:15.343Z,6.82
2023-04-18T00:10:01.869Z,6.80
2023-04-18T00:12:47.603Z,6.90
2023-04-18T00:15:34.410Z,6.86
2023-04-18T00:18:20.370Z,6.73
2023-04-18T00:21:08.549Z,6.93
2023-04-18T00:23:53.399Z,6.91
2023-04-18T00:26:38.332Z,7.10
2023-04-18T00:29:23.196Z,6.81
2023-04-18T00:32:08.408Z,6.64
2023-04-18T00:34:53.163Z,6.68
2023-04-18T00:37:38.015Z,6.80
2023-04-18T00:40:22.802Z,6.86
2023-04-18T00:43:08.887Z,6.79
2023-04-18T00:45:55.075Z,7.00
2023-04-18T00:48:40.181Z,6.82
2023-04-18T00:51:26.536Z,6.65
2023-04-18T00:54:13.447Z,6.76
2023-04-18T00:56:59.021Z,6.65
2023-04-18T00:59:46.153Z,6.52
2023-04-18T01:02:31.301Z,6.62
2023-04-18T01:05:18.039Z,6.45
2023-04-18T01:08:03.642Z,6.45
2023-04-18T01:10:49.299Z,6.68
2023-04-18T01:13:34.506Z,6.50
2023-04-18T01:16:19.738Z,6.47
2023-04-18T01:19:05.668Z,6.35
2023-04-18T01:21:53.343Z,6.38
2023-04-18T01:24:37.965Z,6.44
2023-04-18T01:27:23.420Z,6.31
2023-04-18T01:30:09.160Z,6.19
2023-04-18T01:32:54.767Z,6.23
2023-04-18T01:35:39.737Z,6.14
2023-04-18T01:38:24.546Z,6.25
2023-04-18T01:41:09.528Z,6.16
2023-04-18T01:43:54.565Z,6.06
2023-04-18T01:46:40.710Z,6.02
2023-04-18T01:49:25.853Z,6.12
2023-04-18T01:52:14.004Z,6.08
2023-04-18T01:54:59.219Z,6.07
2023-04-18T01:57:44.451Z,6.00
2023-04-18T02:00:29.225Z,6.02
2023-04-18T02:03:14.550Z,6.07
2023-04-18T02:06:02.682Z,5.90
2023-04-18T02:08:47.923Z,6.02
2023-04-18T02:11:32.702Z,6.01
2023-04-18T02:14:17.469Z,6.10
2023-04-18T02:17:02.502Z,6.18
2023-04-18T02:19:48.416Z,6.11
2023-04-18T02:22:33.512Z,6.12
2023-04-18T02:25:18.597Z,6.15
2023-04-18T02:28:03.824Z,6.00
2023-04-18T02:30:48.792Z,6.06
2023-04-18T02:33:34.405Z,6.15
2023-04-18T02:36:19.279Z,6.12
2023-04-18T02:39:04.596Z,6.16
2023-04-18T02:41:49.520Z,6.19
2023-04-18T02:44:34.358Z,6.23
2023-04-18T02:47:19.301Z,6.17
2023-04-18T02:50:04.999Z,6.06
2023-04-18T02:52:49.927Z,6.20
2023-04-18T02:55:34.928Z,6.24
2023-04-18T02:58:19.728Z,6.21
2023-04-18T03:01:05.011Z,6.18
2023-04-18T03:03:49.882Z,6.08
2023-04-18T03:06:35.097Z,6.07
2023-04-18T03:09:19.949Z,6.19
2023-04-18T03:12:05.045Z,6.15
2023-04-18T03:14:50.163Z,6.04
2023-04-18T03:17:37.269Z,6.06
2023-04-18T03:20:22.576Z,6.12
2023-04-18T03:23:08.113Z,5.91
2023-04-18T03:25:53.216Z,6.02
2023-04-18T03:28:38.611Z,6.04
2023-04-18T03:31:23.534Z,6.05
2023-04-18T03:34:08.955Z,6.03
2023-04-18T03:36:54.098Z,6.10
2023-04-18T03:39:39.591Z,6.02
2023-04-18T03:42:24.376Z,5.96
2023-04-18T03:45:09.486Z,5.93
2023-04-18T03:47:54.414Z,6.08
2023-04-18T03:50:39.659Z,6.06
2023-04-18T03:53:24.556Z,5.99
2023-04-18T03:56:09.794Z,6.03
2023-04-18T03:58:54.975Z,6.07
2023-04-18T04:01:40.126Z,6.08
2023-04-18T04:04:24.979Z,6.12
2023-04-18T04:07:12.254Z,6.07
2023-04-18T04:09:58.518Z,5.94
2023-04-18T04:12:44.025Z,6.00
2023-04-18T04:15:28.815Z,6.07
2023-04-18T04:18:14.024Z,5.90
2023-04-18T04:20:59.806Z,5.98
2023-04-18T04:23:46.484Z,6.03
2023-04-18T04:26:31.621Z,5.95
2023-04-18T04:29:17.603Z,5.93
2023-04-18T04:32:06.467Z,5.99
2023-04-18T04:34:51.729Z,6.01
2023-04-18T04:37:37.073Z,5.92
2023-04-18T04:40:23.483Z,5.92
2023-04-18T04:43:12.492Z,6.07
2023-04-18T04:45:57.801Z,5.92
2023-04-18T04:48:43.143Z,5.87
2023-04-18T04:51:28.399Z,5.84
2023-04-18T04:54:14.253Z,6.04
2023-04-18T04:56:59.228Z,5.84
2023-04-18T04:59:44.432Z,5.96
2023-04-18T05:02:29.995Z,5.93
2023-04-18T05:05:16.163Z,5.86
2023-04-18T05:08:00.947Z,5.86
2023-04-18T05:10:45.976Z,5.84
2023-04-18T05:13:31.128Z,6.01
2023-04-18T05:16:16.716Z,5.95
2023-04-18T05:19:01.885Z,5.99
2023-04-18T05:21:47.132Z,6.02
2023-04-18T05:24:32.484Z,6.03
2023-04-18T05:27:18.109Z,5.96
2023-04-18T05:30:03.596Z,6.16
2023-04-18T05:32:48.337Z,6.08
2023-04-18T05:35:33.283Z,5.83
2023-04-18T05:38:18.427Z,5.93
2023-04-18T05:41:03.766Z,5.92
2023-04-18T05:43:58.210Z,5.96
2023-04-18T05:46:52.227Z,5.89
2023-04-18T05:49:37.161Z,5.81
2023-04-18T05:52:22.294Z,5.89
2023-04-18T05:55:07.768Z,5.85
2023-04-18T05:57:52.679Z,5.82
2023-04-18T06:00:37.459Z,5.62
2023-04-18T06:03:22.974Z,5.83
2023-04-18T06:06:08.189Z,5.92
2023-04-18T06:08:54.214Z,5.90
2023-04-18T06:11:39.620Z,5.79
2023-04-18T06:14:25.865Z,5.89
2023-04-18T06:17:12.974Z,5.78
2023-04-18T06:19:57.863Z,5.90
2023-04-18T06:22:43.055Z,5.80
2023-04-18T06:25:28.022Z,5.84
2023-04-18T06:28:12.827Z,6.08
2023-04-18T06:30:57.676Z,6.35
2023-04-18T06:33:42.775Z,6.22
2023-04-18T06:36:27.764Z,6.29
2023-04-18T06:39:12.782Z,6.24
2023-04-18T06:41:58.499Z,6.37
2023-04-18T06:44:43.641Z,6.25
2023-04-18T06:47:29.285Z,6.45
2023-04-18T06:50:14.894Z,6.51
2023-04-18T06:52:59.719Z,6.57
2023-04-18T06:55:44.566Z,6.65
2023-04-18T06:58:30.528Z,6.73
2023-04-18T07:01:15.978Z,6.80
2023-04-18T07:04:01.336Z,6.82
2023-04-18T07:06:46.458Z,6.83
2023-04-18T07:09:31.850Z,6.80
2023-04-18T07:12:16.735Z,7.01
2023-04-18T07:15:01.937Z,7.27
2023-04-18T07:17:47.281Z,7.26
2023-04-18T07:20:32.591Z,7.27
2023-04-18T07:23:18.363Z,7.45
2023-04-18T07:26:05.205Z,7.52
2023-04-18T07:28:50.162Z,7.71
2023-04-18T07:31:35.224Z,7.80
2023-04-18T07:34:22.300Z,7.89
2023-04-18T07:37:07.259Z,7.95
2023-04-18T07:39:52.097Z,8.13
2023-04-18T07:42:37.309Z,8.13
2023-04-18T07:45:22.285Z,8.09
2023-04-18T07:48:07.173Z,8.18
2023-04-18T07:50:53.196Z,8.16
2023-04-18T07:53:37.938Z,8.28
2023-04-18T07:56:22.864Z,8.48
2023-04-18T07:59:07.667Z,8.74
2023-04-18T08:01:53.756Z,8.87
2023-04-18T08:04:39.195Z,8.94
2023-04-18T08:07:24.267Z,8.68
2023-04-18T08:10:09.233Z,8.50
2023-04-18T08:12:54.352Z,8.72
2023-04-18T08:15:40.513Z,8.73
2023-04-18T08:18:26.085Z,8.97
2023-04-18T08:21:11.227Z,9.26
2023-04-18T08:23:57.198Z,9.41
2023-04-18T08:26:42.095Z,9.88
2023-04-18T08:29:27.608Z,10.11
2023-04-18T08:32:12.285Z,10.47
2023-04-18T08:34:57.490Z,10.18
2023-04-18T08:37:43.153Z,9.97
2023-04-18T08:40:30.112Z,9.68
2023-04-18T08:43:15.670Z,9.32
2023-04-18T08:46:00.753Z,9.16
2023-04-18T08:48:49.530Z,9.15
2023-04-18T08:51:34.360Z,9.22
2023-04-18T08:54:22.297Z,9.18
2023-04-18T08:57:08.837Z,9.29
2023-04-18T08:59:55.357Z,9.23
2023-04-18T09:02:44.906Z,9.19
2023-04-18T09:05:29.909Z,9.19
2023-04-18T09:08:24.315Z,9.28
2023-04-18T09:11:21.548Z,9.40
2023-04-18T09:14:07.733Z,9.41
2023-04-18T09:16:53.210Z,9.29
2023-04-18T09:19:46.236Z,9.36
2023-04-18T09:22:48.273Z,9.35
2023-04-18T09:25:36.032Z,9.34
2023-04-18T09:28:26.842Z,9.40
2023-04-18T09:31:15.317Z,9.47
2023-04-18T09:34:02.247Z,9.38
2023-04-18T09:36:47.084Z,9.47
2023-04-18T09:39:31.951Z,9.33
2023-04-18T09:42:17.712Z,9.22
2023-04-18T09:45:08.231Z,9.28
2023-04-18T09:47:53.759Z,9.26
2023-04-18T09:50:43.402Z,9.19
2023-04-18T09:53:30.076Z,9.33
2023-04-18T09:56:23.464Z,9.23
2023-04-18T09:59:09.803Z,9.33
2023-04-18T10:01:57.139Z,9.36
2023-04-18T10:04:43.583Z,9.39
2023-04-18T10:07:28.740Z,9.57
2023-04-18T10:10:14.605Z,9.53
2023-04-18T10:13:01.472Z,9.68
2023-04-18T10:15:47.199Z,9.60
2023-04-18T10:18:32.482Z,9.70
2023-04-18T10:21:20.719Z,9.79
2023-04-18T10:24:05.960Z,9.81
2023-04-18T10:26:50.803Z,9.64
2023-04-18T10:29:56.526Z,9.73
2023-04-18T10:32:41.951Z,9.59
2023-04-18T10:35:27.185Z,9.72
2023-04-18T10:38:22.367Z,9.92
2023-04-18T10:41:28.777Z,9.76
2023-04-18T10:44:17.397Z,9.88
2023-04-18T10:47:08.662Z,9.83
2023-04-18T10:49:56.412Z,9.90
2023-04-18T10:52:41.675Z,9.90
2023-04-18T10:55:28.850Z,9.87
2023-04-18T10:58:15.430Z,9.89
2023-04-18T11:01:03.286Z,9.90
2023-04-18T11:03:48.629Z,10.30
2023-04-18T11:06:33.502Z,11.42
2023-04-18T11:09:18.577Z,11.82
2023-04-18T11:12:11.230Z,11.76
2023-04-18T11:14:56.050Z,11.71
2023-04-18T11:17:41.112Z,11.44
2023-04-18T11:20:26.828Z,11.21
2023-04-18T11:23:20.888Z,11.25
2023-04-18T11:26:07.393Z,11.38
2023-04-18T11:28:56.877Z,11.61
2023-04-18T11:31:42.033Z,11.52
2023-04-18T11:34:30.963Z,12.40
2023-04-18T11:37:16.482Z,12.80
2023-04-18T11:40:02.305Z,12.38
2023-04-18T11:42:47.243Z,12.29
2023-04-18T11:45:32.512Z,11.84
2023-04-18T11:48:17.725Z,11.81
2023-04-18T11:51:05.458Z,11.83
2023-04-18T11:53:50.592Z,11.67
2023-04-18T11:56:37.054Z,11.61
2023-04-18T11:59:22.444Z,11.48
2023-04-18T12:02:16.387Z,11.45
2023-04-18T12:05:02.730Z,11.35
2023-04-18T12:07:48.059Z,11.33
2023-04-18T12:10:33.301Z,11.27
2023-04-18T12:13:40.140Z,11.61
2023-04-18T12:16:28.493Z,12.46
2023-04-18T12:19:14.537Z,12.90
2023-04-18T12:22:01.302Z,12.61
2023-04-18T12:24:46.529Z,12.41
2023-04-18T12:28:00.236Z,12.42
2023-04-18T12:30:45.104Z,12.34
2023-04-18T12:33:30.458Z,12.32
2023-04-18T12:36:16.015Z,12.22
2023-04-18T12:39:01.500Z,12.19
2023-04-18T12:41:49.661Z,12.48
2023-04-18T12:44:34.924Z,12.56
2023-04-18T12:47:19.701Z,12.83
2023-04-18T12:50:05.992Z,12.93
2023-04-18T12:52:55.651Z,13.00
2023-04-18T12:55:41.090Z,13.52
2023-04-18T12:58:25.996Z,13.44
2023-04-18T13:01:11.021Z,13.23
2023-04-18T13:04:10.864Z,13.82
2023-04-18T13:06:58.449Z,14.23
2023-04-18T13:09:48.582Z,14.80
2023-04-18T13:12:33.523Z,15.17
2023-04-18T13:15:18.853Z,14.61
2023-04-18T13:18:06.084Z,14.24
2023-04-18T13:20:51.466Z,13.83
2023-04-18T13:23:36.469Z,13.51
2023-04-18T13:26:21.291Z,13.13
2023-04-18T13:29:06.108Z,13.05
2023-04-18T13:31:51.053Z,12.98
2023-04-18T13:34:39.684Z,13.58
2023-04-18T13:37:24.865Z,13.66
2023-04-18T13:40:10.520Z,13.35
2023-04-18T13:42:55.821Z,13.38
2023-04-18T13:45:41.289Z,13.54
2023-04-18T13:48:27.251Z,13.89
2023-04-18T13:51:13.340Z,14.02
2023-04-18T13:54:00.333Z,13.69
2023-04-18T13:56:45.634Z,13.42
2023-04-18T13:59:32.026Z,13.04
2023-04-18T14:02:17.131Z,12.95
2023-04-18T14:05:02.706Z,13.10
2023-04-18T14:07:48.547Z,12.77
2023-04-18T14:10:33.992Z,12.70
2023-04-18T14:13:19.539Z,12.59
2023-04-18T14:16:07.068Z,12.65
2023-04-18T14:18:53.720Z,12.86
2023-04-18T14:21:38.524Z,13.00
2023-04-18T14:24:23.481Z,13.49
2023-04-18T14:27:09.724Z,13.51
2023-04-18T14:29:54.642Z,13.56
2023-04-18T14:32:39.409Z,13.80
2023-04-18T14:35:24.602Z,13.72
2023-04-18T14:38:10.196Z,14.26
2023-04-18T14:40:55.165Z,14.31
2023-04-18T14:43:40.275Z,14.04
2023-04-18T14:46:27.273Z,13.79
2023-04-18T14:49:12.222Z,13.58
2023-04-18T14:51:57.572Z,13.46
2023-04-18T14:54:43.821Z,14.00
2023-04-18T14:57:29.987Z,14.55
2023-04-18T15:00:15.709Z,14.84
2023-04-18T15:03:00.927Z,14.37
2023-04-18T15:05:49.358Z,13.97
2023-04-18T15:08:34.394Z,14.07
2023-04-18T15:11:20.131Z,13.93
2023-04-18T15:14:05.278Z,13.53
2023-04-18T15:16:50.644Z,13.55
2023-04-18T15:19:35.764Z,13.49
2023-04-18T15:22:20.612Z,13.41
2023-04-18T15:25:09.955Z,13.53
2023-04-18T15:27:54.852Z,13.52
2023-04-18T15:30:39.840Z,13.37
2023-04-18T15:33:25.180Z,13.36
2023-04-18T15:36:09.966Z,13.30
2023-04-18T15:38:54.959Z,13.26
2023-04-18T15:41:42.307Z,13.13
2023-04-18T15:44:28.926Z,13.17
2023-04-18T15:47:14.847Z,13.21
2023-04-18T15:49:59.977Z,13.26
2023-04-18T15:52:46.765Z,13.00
2023-04-18T15:55:31.957Z,13.05
2023-04-18T15:58:16.805Z,13.05
2023-04-18T16:01:03.230Z,12.87
2023-04-18T16:03:49.332Z,12.90
2023-04-18T16:06:34.461Z,12.95
2023-04-18T16:09:20.691Z,13.04
2023-04-18T16:12:07.081Z,13.00
2023-04-18T16:14:52.289Z,12.88
2023-04-18T16:17:37.843Z,12.87
2023-04-18T16:20:23.183Z,13.02
2023-04-18T16:23:08.595Z,12.99
2023-04-18T16:25:55.138Z,13.01
2023-04-18T16:28:42.272Z,12.90
2023-04-18T16:31:27.393Z,12.92
2023-04-18T16:34:12.644Z,12.90
2023-04-18T16:36:57.920Z,12.90
2023-04-18T16:39:43.596Z,12.86
2023-04-18T16:42:28.564Z,12.77
2023-04-18T16:45:13.982Z,12.76
2023-04-18T16:48:00.372Z,12.77
2023-04-18T16:50:48.458Z,12.78
2023-04-18T16:53:34.755Z,12.72
2023-04-18T16:56:19.778Z,12.66
2023-04-18T16:59:04.643Z,12.63
2023-04-18T17:01:49.493Z,12.67
2023-04-18T17:04:34.921Z,12.62
2023-04-18T17:07:20.985Z,12.55
2023-04-18T17:10:07.298Z,12.52
2023-04-18T17:12:53.868Z,12.51
2023-04-18T17:15:39.026Z,12.53
2023-04-18T17:18:25.424Z,12.50
2023-04-18T17:21:12.413Z,12.55
2023-04-18T17:23:59.425Z,12.50
2023-04-18T17:26:44.761Z,12.45
2023-04-18T17:29:32.650Z,12.47
2023-04-18T17:32:17.756Z,12.42
2023-04-18T17:35:06.399Z,12.35
2023-04-18T17:37:54.830Z,12.34
2023-04-18T17:40:40.869Z,12.33
2023-04-18T17:43:25.653Z,12.35
2023-04-18T17:46:12.951Z,12.26
2023-04-18T17:48:57.867Z,12.26
2023-04-18T17:51:44.325Z,12.26
2023-04-18T17:54:30.086Z,12.17
2023-04-18T17:57:14.945Z,12.15
2023-04-18T17:59:59.742Z,12.13
2023-04-18T18:02:44.942Z,12.20
2023-04-18T18:05:31.169Z,12.06
2023-04-18T18:08:16.628Z,12.01
2023-04-18T18:11:02.854Z,12.00
2023-04-18T18:13:51.498Z,11.94
2023-04-18T18:16:39.899Z,11.94
2023-04-18T18:19:25.975Z,11.89
2023-04-18T18:22:10.941Z,11.90
2023-04-18T18:24:56.877Z,11.86
2023-04-18T18:27:42.217Z,11.80
2023-04-18T18:30:32.709Z,11.69
2023-04-18T18:33:17.965Z,11.71
2023-04-18T18:36:04.603Z,11.66
2023-04-18T18:38:50.708Z,11.55
2023-04-18T18:41:36.129Z,11.58
2023-04-18T18:44:21.407Z,11.62
2023-04-18T18:47:08.125Z,11.55
2023-04-18T18:49:53.313Z,11.51
2023-04-18T18:52:40.692Z,11.50
2023-04-18T18:55:27.145Z,11.44
2023-04-18T18:58:12.261Z,11.49
2023-04-18T19:00:58.447Z,11.39
2023-04-18T19:03:45.009Z,11.44
2023-04-18T19:06:32.807Z,11.42
2023-04-18T19:09:17.721Z,11.39
2023-04-18T19:12:06.289Z,11.33
2023-04-18T19:14:52.646Z,11.30
2023-04-18T19:17:39.509Z,11.21
2023-04-18T19:20:25.257Z,11.21
2023-04-18T19:23:11.741Z,11.27
2023-04-18T19:25:57.575Z,11.27
2023-04-18T19:28:45.823Z,11.15
2023-04-18T19:31:31.035Z,11.05
2023-04-18T19:34:18.666Z,11.06
2023-04-18T19:37:04.390Z,11.07
2023-04-18T19:39:51.927Z,11.03
2023-04-18T19:42:38.494Z,11.02
2023-04-18T19:45:25.908Z,11.05
2023-04-18T19:48:12.292Z,11.02
2023-04-18T19:51:00.662Z,10.93
2023-04-18T19:53:48.643Z,10.88
2023-04-18T19:56:33.418Z,10.87
2023-04-18T19:59:20.901Z,10.81
2023-04-18T20:02:10.650Z,10.83
2023-04-18T20:04:56.694Z,10.73
2023-04-18T20:07:44.670Z,10.81
2023-04-18T20:10:31.295Z,10.74
2023-04-18T20:13:17.316Z,10.70
2023-04-18T20:16:04.500Z,10.63
2023-04-18T20:18:49.958Z,10.66
2023-04-18T20:21:35.777Z,10.68
2023-04-18T20:24:21.451Z,10.68
2023-04-18T20:27:06.811Z,10.52
2023-04-18T20:29:51.804Z,10.57
2023-04-18T20:32:37.814Z,10.55
2023-04-18T20:35:22.976Z,10.48
2023-04-18T20:38:09.704Z,10.42
2023-04-18T20:40:54.563Z,10.33
2023-04-18T20:43:41.019Z,10.42
2023-04-18T20:46:26.284Z,10.35
2023-04-18T20:49:11.423Z,10.34
2023-04-18T20:51:56.555Z,10.24
2023-04-18T20:54:42.715Z,10.29
2023-04-18T20:57:27.785Z,10.23
2023-04-18T21:00:16.178Z,10.18
2023-04-18T21:03:01.143Z,10.12
2023-04-18T21:05:48.684Z,10.13
2023-04-18T21:08:35.084Z,10.13
2023-04-18T21:11:19.848Z,10.09
2023-04-18T21:14:06.488Z,10.04
2023-04-18T21:16:51.704Z,10.04
2023-04-18T21:19:37.149Z,9.99
2023-04-18T21:22:22.285Z,9.90
2023-04-18T21:25:07.909Z,9.88
2023-04-18T21:27:52.598Z,9.90
2023-04-18T21:30:37.832Z,9.86
2023-04-18T21:33:24.884Z,9.83
2023-04-18T21:36:09.796Z,9.75
2023-04-18T21:38:56.760Z,9.75
2023-04-18T21:41:42.009Z,9.73
2023-04-18T21:44:26.954Z,9.71
2023-04-18T21:47:11.767Z,9.58
2023-04-18T21:49:56.964Z,9.56
2023-04-18T21:52:41.757Z,9.51
2023-04-18T21:55:28.542Z,9.54
2023-04-18T21:58:14.203Z,9.50
2023-04-18T22:00:59.528Z,9.49
2023-04-18T22:03:44.903Z,9.49
2023-04-18T22:06:33.883Z,9.35
2023-04-18T22:09:19.328Z,9.34
2023-04-18T22:12:04.566Z,9.34
2023-04-18T22:14:49.836Z,9.25
2023-04-18T22:17:34.904Z,9.23
2023-04-18T22:20:20.004Z,9.24
2023-04-18T22:23:06.976Z,9.10
2023-04-18T22:25:52.128Z,9.10
2023-04-18T22:28:36.988Z,9.15
2023-04-18T22:31:22.426Z,9.07
2023-04-18T22:34:07.424Z,9.17
2023-04-18T22:36:52.576Z,9.05
2023-04-18T22:39:38.463Z,9.08
2023-04-18T22:42:24.259Z,9.05
2023-04-18T22:45:09.812Z,8.99
2023-04-18T22:47:54.787Z,8.94
2023-04-18T22:50:43.073Z,8.76
2023-04-18T22:53:28.443Z,8.77
2023-04-18T22:56:13.188Z,8.72
2023-04-18T22:58:57.999Z,8.57
2023-04-18T23:01:43.223Z,8.57
2023-04-18T23:04:30.963Z,8.55
2023-04-18T23:07:16.583Z,8.46
2023-04-18T23:10:05.398Z,8.39
2023-04-18T23:12:50.791Z,8.17
2023-04-18T23:15:36.209Z,8.20
2023-04-18T23:18:20.847Z,8.15
2023-04-18T23:21:05.916Z,8.01
2023-04-18T23:23:51.328Z,7.93
2023-04-18T23:26:36.941Z,7.69
2023-04-18T23:29:21.945Z,7.68
2023-04-18T23:32:07.201Z,7.76
2023-04-18T23:34:52.140Z,7.62
2023-04-18T23:37:37.149Z,7.54
2023-04-18T23:40:22.178Z,7.39
2023-04-18T23:43:07.289Z,7.36
2023-04-18T23:45:52.476Z,7.18
2023-04-18T23:48:37.405Z,7.09
2023-04-18T23:51:22.279Z,7.09
2023-04-18T23:54:07.505Z,6.95
2023-04-18T23:56:52.708Z,6.95
2023-04-18T23:59:37.808Z,6.90
